sensor_id;sensor_type;location;lat;lon;timestamp;P1;P2;P0
57289;PMS5003;43523;53.022;-1.178;2024-03-08T00:00:37;41;38;
57289;PMS5003;43523;53.022;-1.178;2024-03-08T00:01:40;49;36;
57289;PMS5003;43523;53.022;-1.178;2024-03-08T00:02:43;53;37;
57289;PMS5003;43523;53.022;-1.178;2024-03-08T00:03:46;53;41;
57289;PMS5003;43523;53.022;-1.178;2024-03-08T00:04:49;45;41;
57289;PMS5003;43523;53.022;-1.178;2024-03-08T00:05:52;45;39;
57289;PMS5003;43523;53.022;-1.178;2024-03-08T00:06:54;47;40;
57289;PMS5003;43523;53.022;-1.178;2024-03-08T00:07:56;47;38;
57289;PMS5003;43523;53.022;-1.178;2024-03-08T00:08:59;51;39;
57289;PMS5003;43523;53.022;-1.178;2024-03-08T00:10:02;57;43;
57289;PMS5003;43523;53.022;-1.178;2024-03-08T00:11:05;53;44;
57289;PMS5003;43523;53.022;-1.178;2024-03-08T00:12:08;44;38;
57289;PMS5003;43523;53.022;-1.178;2024-03-08T00:13:10;50;42;
57289;PMS5003;43523;53.022;-1.178;2024-03-08T00:14:13;47;44;
57289;PMS5003;43523;53.022;-1.178;2024-03-08T00:15:16;53;43;
57289;PMS5003;43523;53.022;-1.178;2024-03-08T00:16:21;53;38;
57289;PMS5003;43523;53.022;-1.178;2024-03-08T00:17:23;46;39;
57289;PMS5003;43523;53.022;-1.178;2024-03-08T00:18:26;58;44;
57289;PMS5003;43523;53.022;-1.178;2024-03-08T00:19:28;58;44;
57289;PMS5003;43523;53.022;-1.178;2024-03-08T00:20:31;49;37;
57289;PMS5003;43523;53.022;-1.178;2024-03-08T00:21:33;49;41;
57289;PMS5003;43523;53.022;-1.178;2024-03-08T00:22:36;64;50;
57289;PMS5003;43523;53.022;-1.178;2024-03-08T00:23:40;55;44;
57289;PMS5003;43523;53.022;-1.178;2024-03-08T00:24:42;50;43;
57289;PMS5003;43523;53.022;-1.178;2024-03-08T00:25:45;48;41;
57289;PMS5003;43523;53.022;-1.178;2024-03-08T00:26:47;54;46;
57289;PMS5003;43523;53.022;-1.178;2024-03-08T00:27:49;61;45;
57289;PMS5003;43523;53.022;-1.178;2024-03-08T00:28:52;54;46;
57289;PMS5003;43523;53.022;-1.178;2024-03-08T00:29:54;55;45;
57289;PMS5003;43523;53.022;-1.178;2024-03-08T00:30:57;54;47;
57289;PMS5003;43523;53.022;-1.178;2024-03-08T00:32:01;58;50;
57289;PMS5003;43523;53.022;-1.178;2024-03-08T00:33:04;44;39;
57289;PMS5003;43523;53.022;-1.178;2024-03-08T00:34:06;53;43;
57289;PMS5003;43523;53.022;-1.178;2024-03-08T00:35:08;59;51;
57289;PMS5003;43523;53.022;-1.178;2024-03-08T00:36:11;50;42;
57289;PMS5003;43523;53.022;-1.178;2024-03-08T00:37:13;50;42;
57289;PMS5003;43523;53.022;-1.178;2024-03-08T00:38:15;61;47;
57289;PMS5003;43523;53.022;-1.178;2024-03-08T00:39:18;45;38;
57289;PMS5003;43523;53.022;-1.178;2024-03-08T00:40:21;51;36;
57289;PMS5003;43523;53.022;-1.178;2024-03-08T00:41:23;64;48;
57289;PMS5003;43523;53.022;-1.178;2024-03-08T00:42:25;54;44;
57289;PMS5003;43523;53.022;-1.178;2024-03-08T00:43:28;56;44;
57289;PMS5003;43523;53.022;-1.178;2024-03-08T00:44:30;60;47;
57289;PMS5003;43523;53.022;-1.178;2024-03-08T00:45:33;51;39;
57289;PMS5003;43523;53.022;-1.178;2024-03-08T00:46:36;60;48;
57289;PMS5003;43523;53.022;-1.178;2024-03-08T00:47:38;55;46;
57289;PMS5003;43523;53.022;-1.178;2024-03-08T00:48:41;60;44;
57289;PMS5003;43523;53.022;-1.178;2024-03-08T00:49:44;62;47;
57289;PMS5003;43523;53.022;-1.178;2024-03-08T00:50:51;60;53;
57289;PMS5003;43523;53.022;-1.178;2024-03-08T00:51:55;67;54;
57289;PMS5003;43523;53.022;-1.178;2024-03-08T00:52:58;59;46;
57289;PMS5003;43523;53.022;-1.178;2024-03-08T00:54:00;47;38;
57289;PMS5003;43523;53.022;-1.178;2024-03-08T00:55:03;45;38;
57289;PMS5003;43523;53.022;-1.178;2024-03-08T00:56:07;61;48;
57289;PMS5003;43523;53.022;-1.178;2024-03-08T00:57:09;49;43;
57289;PMS5003;43523;53.022;-1.178;2024-03-08T00:58:12;54;46;
57289;PMS5003;43523;53.022;-1.178;2024-03-08T00:59:15;67;50;
57289;PMS5003;43523;53.022;-1.178;2024-03-08T01:00:19;64;40;
57289;PMS5003;43523;53.022;-1.178;2024-03-08T01:01:27;50;40;
57289;PMS5003;43523;53.022;-1.178;2024-03-08T01:02:29;58;45;
57289;PMS5003;43523;53.022;-1.178;2024-03-08T01:03:32;46;39;
57289;PMS5003;43523;53.022;-1.178;2024-03-08T01:04:34;49;43;
57289;PMS5003;43523;53.022;-1.178;2024-03-08T01:05:36;56;44;
57289;PMS5003;43523;53.022;-1.178;2024-03-08T01:06:38;64;51;
57289;PMS5003;43523;53.022;-1.178;2024-03-08T01:07:41;60;46;
57289;PMS5003;43523;53.022;-1.178;2024-03-08T01:08:43;51;44;
57289;PMS5003;43523;53.022;-1.178;2024-03-08T01:09:45;62;50;
57289;PMS5003;43523;53.022;-1.178;2024-03-08T01:10:47;55;45;
57289;PMS5003;43523;53.022;-1.178;2024-03-08T01:11:50;56;44;
57289;PMS5003;43523;53.022;-1.178;2024-03-08T01:12:52;57;45;
57289;PMS5003;43523;53.022;-1.178;2024-03-08T01:13:55;44;36;
57289;PMS5003;43523;53.022;-1.178;2024-03-08T01:14:58;48;41;
57289;PMS5003;43523;53.022;-1.178;2024-03-08T01:16:00;64;42;
57289;PMS5003;43523;53.022;-1.178;2024-03-08T01:17:02;49;43;
57289;PMS5003;43523;53.022;-1.178;2024-03-08T01:18:05;52;41;
57289;PMS5003;43523;53.022;-1.178;2024-03-08T01:19:07;46;38;
57289;PMS5003;43523;53.022;-1.178;2024-03-08T01:20:09;49;43;
57289;PMS5003;43523;53.022;-1.178;2024-03-08T01:21:13;65;47;
57289;PMS5003;43523;53.022;-1.178;2024-03-08T01:22:15;58;46;
57289;PMS5003;43523;53.022;-1.178;2024-03-08T01:23:18;59;47;
57289;PMS5003;43523;53.022;-1.178;2024-03-08T01:24:21;48;39;
57289;PMS5003;43523;53.022;-1.178;2024-03-08T01:25:23;56;43;
57289;PMS5003;43523;53.022;-1.178;2024-03-08T01:26:25;57;49;
57289;PMS5003;43523;53.022;-1.178;2024-03-08T01:27:28;56;44;
57289;PMS5003;43523;53.022;-1.178;2024-03-08T01:28:30;66;53;
57289;PMS5003;43523;53.022;-1.178;2024-03-08T01:29:33;50;42;
57289;PMS5003;43523;53.022;-1.178;2024-03-08T01:30:35;51;39;
57289;PMS5003;43523;53.022;-1.178;2024-03-08T01:31:37;52;44;
57289;PMS5003;43523;53.022;-1.178;2024-03-08T01:32:40;56;45;
57289;PMS5003;43523;53.022;-1.178;2024-03-08T01:33:47;48;42;
57289;PMS5003;43523;53.022;-1.178;2024-03-08T01:34:50;53;38;
57289;PMS5003;43523;53.022;-1.178;2024-03-08T01:35:52;58;46;
57289;PMS5003;43523;53.022;-1.178;2024-03-08T01:36:54;55;45;
57289;PMS5003;43523;53.022;-1.178;2024-03-08T01:37:56;56;47;
57289;PMS5003;43523;53.022;-1.178;2024-03-08T01:38:58;61;39;
57289;PMS5003;43523;53.022;-1.178;2024-03-08T01:40:01;53;41;
57289;PMS5003;43523;53.022;-1.178;2024-03-08T01:41:04;51;42;
57289;PMS5003;43523;53.022;-1.178;2024-03-08T01:42:06;49;43;
57289;PMS5003;43523;53.022;-1.178;2024-03-08T01:43:17;47;42;
57289;PMS5003;43523;53.022;-1.178;2024-03-08T01:44:21;51;41;
57289;PMS5003;43523;53.022;-1.178;2024-03-08T01:45:24;53;47;
57289;PMS5003;43523;53.022;-1.178;2024-03-08T01:46:26;58;42;
57289;PMS5003;43523;53.022;-1.178;2024-03-08T01:47:29;58;48;
57289;PMS5003;43523;53.022;-1.178;2024-03-08T01:48:32;53;42;
57289;PMS5003;43523;53.022;-1.178;2024-03-08T01:49:35;60;46;
57289;PMS5003;43523;53.022;-1.178;2024-03-08T01:50:37;51;45;
57289;PMS5003;43523;53.022;-1.178;2024-03-08T01:51:40;53;43;
57289;PMS5003;43523;53.022;-1.178;2024-03-08T01:52:43;48;42;
57289;PMS5003;43523;53.022;-1.178;2024-03-08T01:53:47;55;42;
57289;PMS5003;43523;53.022;-1.178;2024-03-08T01:54:50;57;43;
57289;PMS5003;43523;53.022;-1.178;2024-03-08T01:55:54;53;37;
57289;PMS5003;43523;53.022;-1.178;2024-03-08T01:56:58;48;41;
57289;PMS5003;43523;53.022;-1.178;2024-03-08T01:58:00;58;47;
57289;PMS5003;43523;53.022;-1.178;2024-03-08T01:59:05;50;46;
57289;PMS5003;43523;53.022;-1.178;2024-03-08T02:00:08;61;49;
57289;PMS5003;43523;53.022;-1.178;2024-03-08T02:01:12;56;44;
57289;PMS5003;43523;53.022;-1.178;2024-03-08T02:02:15;48;41;
57289;PMS5003;43523;53.022;-1.178;2024-03-08T02:03:21;50;43;
57289;PMS5003;43523;53.022;-1.178;2024-03-08T02:04:23;57;47;
57289;PMS5003;43523;53.022;-1.178;2024-03-08T02:05:25;51;42;
57289;PMS5003;43523;53.022;-1.178;2024-03-08T02:06:28;50;44;
57289;PMS5003;43523;53.022;-1.178;2024-03-08T02:07:30;58;47;
57289;PMS5003;43523;53.022;-1.178;2024-03-08T02:08:32;63;46;
57289;PMS5003;43523;53.022;-1.178;2024-03-08T02:09:35;48;43;
57289;PMS5003;43523;53.022;-1.178;2024-03-08T02:10:38;59;42;
57289;PMS5003;43523;53.022;-1.178;2024-03-08T02:11:40;48;40;
57289;PMS5003;43523;53.022;-1.178;2024-03-08T02:12:44;55;44;
57289;PMS5003;43523;53.022;-1.178;2024-03-08T02:13:53;44;35;
57289;PMS5003;43523;53.022;-1.178;2024-03-08T02:14:55;53;43;
57289;PMS5003;43523;53.022;-1.178;2024-03-08T02:15:57;56;45;
57289;PMS5003;43523;53.022;-1.178;2024-03-08T02:17:01;51;40;
57289;PMS5003;43523;53.022;-1.178;2024-03-08T02:18:04;50;43;
57289;PMS5003;43523;53.022;-1.178;2024-03-08T02:19:07;49;40;
57289;PMS5003;43523;53.022;-1.178;2024-03-08T02:20:11;58;44;
57289;PMS5003;43523;53.022;-1.178;2024-03-08T02:21:15;52;41;
57289;PMS5003;43523;53.022;-1.178;2024-03-08T02:22:19;56;48;
57289;PMS5003;43523;53.022;-1.178;2024-03-08T02:23:21;55;44;
57289;PMS5003;43523;53.022;-1.178;2024-03-08T02:24:25;48;43;
57289;PMS5003;43523;53.022;-1.178;2024-03-08T02:25:30;55;39;
57289;PMS5003;43523;53.022;-1.178;2024-03-08T02:26:33;50;42;
57289;PMS5003;43523;53.022;-1.178;2024-03-08T02:27:35;64;47;
57289;PMS5003;43523;53.022;-1.178;2024-03-08T02:28:37;64;51;
57289;PMS5003;43523;53.022;-1.178;2024-03-08T02:29:41;44;39;
57289;PMS5003;43523;53.022;-1.178;2024-03-08T02:30:45;53;44;
57289;PMS5003;43523;53.022;-1.178;2024-03-08T02:31:50;56;46;
57289;PMS5003;43523;53.022;-1.178;2024-03-08T02:32:52;53;40;
57289;PMS5003;43523;53.022;-1.178;2024-03-08T02:33:54;55;43;
57289;PMS5003;43523;53.022;-1.178;2024-03-08T02:34:56;52;45;
57289;PMS5003;43523;53.022;-1.178;2024-03-08T02:35:59;54;45;
57289;PMS5003;43523;53.022;-1.178;2024-03-08T02:37:02;57;47;
57289;PMS5003;43523;53.022;-1.178;2024-03-08T02:38:05;48;42;
57289;PMS5003;43523;53.022;-1.178;2024-03-08T02:39:07;58;45;
57289;PMS5003;43523;53.022;-1.178;2024-03-08T02:40:11;55;48;
57289;PMS5003;43523;53.022;-1.178;2024-03-08T02:41:13;55;47;
57289;PMS5003;43523;53.022;-1.178;2024-03-08T02:42:15;53;44;
57289;PMS5003;43523;53.022;-1.178;2024-03-08T02:43:19;55;43;
57289;PMS5003;43523;53.022;-1.178;2024-03-08T02:44:22;51;43;
57289;PMS5003;43523;53.022;-1.178;2024-03-08T02:45:25;65;46;
57289;PMS5003;43523;53.022;-1.178;2024-03-08T02:46:28;61;52;
57289;PMS5003;43523;53.022;-1.178;2024-03-08T02:47:30;54;44;
57289;PMS5003;43523;53.022;-1.178;2024-03-08T02:48:33;62;48;
57289;PMS5003;43523;53.022;-1.178;2024-03-08T02:49:35;51;46;
57289;PMS5003;43523;53.022;-1.178;2024-03-08T02:50:38;61;49;
57289;PMS5003;43523;53.022;-1.178;2024-03-08T02:51:41;69;52;
57289;PMS5003;43523;53.022;-1.178;2024-03-08T02:52:44;56;50;
57289;PMS5003;43523;53.022;-1.178;2024-03-08T02:53:46;51;44;
57289;PMS5003;43523;53.022;-1.178;2024-03-08T02:54:49;53;46;
57289;PMS5003;43523;53.022;-1.178;2024-03-08T02:55:51;62;50;
57289;PMS5003;43523;53.022;-1.178;2024-03-08T02:56:53;69;51;
57289;PMS5003;43523;53.022;-1.178;2024-03-08T02:57:56;60;48;
57289;PMS5003;43523;53.022;-1.178;2024-03-08T02:58:59;55;47;
57289;PMS5003;43523;53.022;-1.178;2024-03-08T03:00:01;63;50;
57289;PMS5003;43523;53.022;-1.178;2024-03-08T03:01:03;50;43;
57289;PMS5003;43523;53.022;-1.178;2024-03-08T03:02:06;55;48;
57289;PMS5003;43523;53.022;-1.178;2024-03-08T03:03:09;54;47;
57289;PMS5003;43523;53.022;-1.178;2024-03-08T03:04:11;69;52;
57289;PMS5003;43523;53.022;-1.178;2024-03-08T03:05:14;60;51;
57289;PMS5003;43523;53.022;-1.178;2024-03-08T03:06:16;55;49;
57289;PMS5003;43523;53.022;-1.178;2024-03-08T03:07:19;57;47;
57289;PMS5003;43523;53.022;-1.178;2024-03-08T03:08:22;53;44;
57289;PMS5003;43523;53.022;-1.178;2024-03-08T03:09:24;61;45;
57289;PMS5003;43523;53.022;-1.178;2024-03-08T03:10:26;54;46;
57289;PMS5003;43523;53.022;-1.178;2024-03-08T03:11:28;56;45;
57289;PMS5003;43523;53.022;-1.178;2024-03-08T03:12:31;53;46;
57289;PMS5003;43523;53.022;-1.178;2024-03-08T03:13:33;58;47;
57289;PMS5003;43523;53.022;-1.178;2024-03-08T03:14:36;60;43;
57289;PMS5003;43523;53.022;-1.178;2024-03-08T03:15:38;63;47;
57289;PMS5003;43523;53.022;-1.178;2024-03-08T03:16:40;51;51;
57289;PMS5003;43523;53.022;-1.178;2024-03-08T03:17:45;59;46;
57289;PMS5003;43523;53.022;-1.178;2024-03-08T03:18:48;58;47;
57289;PMS5003;43523;53.022;-1.178;2024-03-08T03:19:51;56;44;
57289;PMS5003;43523;53.022;-1.178;2024-03-08T03:20:54;61;50;
57289;PMS5003;43523;53.022;-1.178;2024-03-08T03:21:57;57;50;
57289;PMS5003;43523;53.022;-1.178;2024-03-08T03:22:59;56;44;
57289;PMS5003;43523;53.022;-1.178;2024-03-08T03:24:01;52;45;
57289;PMS5003;43523;53.022;-1.178;2024-03-08T03:25:09;65;50;
57289;PMS5003;43523;53.022;-1.178;2024-03-08T03:26:11;61;45;
57289;PMS5003;43523;53.022;-1.178;2024-03-08T03:27:13;58;49;
57289;PMS5003;43523;53.022;-1.178;2024-03-08T03:28:16;60;46;
57289;PMS5003;43523;53.022;-1.178;2024-03-08T03:29:19;58;53;
57289;PMS5003;43523;53.022;-1.178;2024-03-08T03:30:22;60;49;
57289;PMS5003;43523;53.022;-1.178;2024-03-08T03:31:24;51;43;
57289;PMS5003;43523;53.022;-1.178;2024-03-08T03:32:27;64;48;
57289;PMS5003;43523;53.022;-1.178;2024-03-08T03:33:30;62;50;
57289;PMS5003;43523;53.022;-1.178;2024-03-08T03:34:32;71;45;
57289;PMS5003;43523;53.022;-1.178;2024-03-08T03:35:35;58;44;
57289;PMS5003;43523;53.022;-1.178;2024-03-08T03:36:38;66;49;
57289;PMS5003;43523;53.022;-1.178;2024-03-08T03:37:40;66;52;
57289;PMS5003;43523;53.022;-1.178;2024-03-08T03:38:43;67;54;
57289;PMS5003;43523;53.022;-1.178;2024-03-08T03:39:46;55;43;
57289;PMS5003;43523;53.022;-1.178;2024-03-08T03:40:49;54;44;
57289;PMS5003;43523;53.022;-1.178;2024-03-08T03:41:51;61;48;
57289;PMS5003;43523;53.022;-1.178;2024-03-08T03:42:54;53;44;
57289;PMS5003;43523;53.022;-1.178;2024-03-08T03:43:58;68;57;
57289;PMS5003;43523;53.022;-1.178;2024-03-08T03:45:00;55;46;
57289;PMS5003;43523;53.022;-1.178;2024-03-08T03:46:05;59;46;
57289;PMS5003;43523;53.022;-1.178;2024-03-08T03:47:07;61;48;
57289;PMS5003;43523;53.022;-1.178;2024-03-08T03:48:10;58;46;
57289;PMS5003;43523;53.022;-1.178;2024-03-08T03:49:12;64;52;
57289;PMS5003;43523;53.022;-1.178;2024-03-08T03:50:14;57;41;
57289;PMS5003;43523;53.022;-1.178;2024-03-08T03:51:17;66;51;
57289;PMS5003;43523;53.022;-1.178;2024-03-08T03:52:21;46;42;
57289;PMS5003;43523;53.022;-1.178;2024-03-08T03:53:23;66;48;
57289;PMS5003;43523;53.022;-1.178;2024-03-08T03:54:27;61;51;
57289;PMS5003;43523;53.022;-1.178;2024-03-08T03:55:29;62;48;
57289;PMS5003;43523;53.022;-1.178;2024-03-08T03:56:32;59;50;
57289;PMS5003;43523;53.022;-1.178;2024-03-08T03:57:35;62;52;
57289;PMS5003;43523;53.022;-1.178;2024-03-08T03:58:38;59;49;
57289;PMS5003;43523;53.022;-1.178;2024-03-08T03:59:41;60;50;
57289;PMS5003;43523;53.022;-1.178;2024-03-08T04:00:44;61;46;
57289;PMS5003;43523;53.022;-1.178;2024-03-08T04:01:46;58;50;
57289;PMS5003;43523;53.022;-1.178;2024-03-08T04:02:49;63;44;
57289;PMS5003;43523;53.022;-1.178;2024-03-08T04:03:51;56;50;
57289;PMS5003;43523;53.022;-1.178;2024-03-08T04:04:54;60;50;
57289;PMS5003;43523;53.022;-1.178;2024-03-08T04:05:56;65;49;
57289;PMS5003;43523;53.022;-1.178;2024-03-08T04:06:59;67;51;
57289;PMS5003;43523;53.022;-1.178;2024-03-08T04:08:01;67;48;
57289;PMS5003;43523;53.022;-1.178;2024-03-08T04:09:03;56;48;
57289;PMS5003;43523;53.022;-1.178;2024-03-08T04:10:07;75;51;
57289;PMS5003;43523;53.022;-1.178;2024-03-08T04:11:10;63;53;
57289;PMS5003;43523;53.022;-1.178;2024-03-08T04:12:12;65;50;
57289;PMS5003;43523;53.022;-1.178;2024-03-08T04:13:15;52;44;
57289;PMS5003;43523;53.022;-1.178;2024-03-08T04:14:17;69;50;
57289;PMS5003;43523;53.022;-1.178;2024-03-08T04:15:20;73;56;
57289;PMS5003;43523;53.022;-1.178;2024-03-08T04:16:22;65;58;
57289;PMS5003;43523;53.022;-1.178;2024-03-08T04:17:25;65;55;
57289;PMS5003;43523;53.022;-1.178;2024-03-08T04:18:28;58;47;
57289;PMS5003;43523;53.022;-1.178;2024-03-08T04:19:30;71;50;
57289;PMS5003;43523;53.022;-1.178;2024-03-08T04:20:38;66;50;
57289;PMS5003;43523;53.022;-1.178;2024-03-08T04:21:41;59;44;
57289;PMS5003;43523;53.022;-1.178;2024-03-08T04:22:43;61;49;
57289;PMS5003;43523;53.022;-1.178;2024-03-08T04:23:51;67;54;
57289;PMS5003;43523;53.022;-1.178;2024-03-08T04:24:54;76;57;
57289;PMS5003;43523;53.022;-1.178;2024-03-08T04:25:56;67;53;
57289;PMS5003;43523;53.022;-1.178;2024-03-08T04:26:59;63;50;
57289;PMS5003;43523;53.022;-1.178;2024-03-08T04:28:02;67;51;
57289;PMS5003;43523;53.022;-1.178;2024-03-08T04:29:05;66;51;
57289;PMS5003;43523;53.022;-1.178;2024-03-08T04:30:08;60;48;
57289;PMS5003;43523;53.022;-1.178;2024-03-08T04:31:12;62;47;
57289;PMS5003;43523;53.022;-1.178;2024-03-08T04:32:14;53;45;
57289;PMS5003;43523;53.022;-1.178;2024-03-08T04:33:16;61;49;
57289;PMS5003;43523;53.022;-1.178;2024-03-08T04:34:20;72;54;
57289;PMS5003;43523;53.022;-1.178;2024-03-08T04:35:23;67;55;
57289;PMS5003;43523;53.022;-1.178;2024-03-08T04:36:26;65;47;
57289;PMS5003;43523;53.022;-1.178;2024-03-08T04:37:28;72;54;
57289;PMS5003;43523;53.022;-1.178;2024-03-08T04:38:31;73;56;
57289;PMS5003;43523;53.022;-1.178;2024-03-08T04:39:33;69;56;
57289;PMS5003;43523;53.022;-1.178;2024-03-08T04:40:35;66;48;
57289;PMS5003;43523;53.022;-1.178;2024-03-08T04:41:38;65;48;
57289;PMS5003;43523;53.022;-1.178;2024-03-08T04:42:42;70;50;
57289;PMS5003;43523;53.022;-1.178;2024-03-08T04:43:44;63;52;
57289;PMS5003;43523;53.022;-1.178;2024-03-08T04:44:47;58;48;
57289;PMS5003;43523;53.022;-1.178;2024-03-08T04:45:48;70;50;
57289;PMS5003;43523;53.022;-1.178;2024-03-08T04:46:51;58;47;
57289;PMS5003;43523;53.022;-1.178;2024-03-08T04:47:53;61;51;
57289;PMS5003;43523;53.022;-1.178;2024-03-08T04:48:56;59;49;
57289;PMS5003;43523;53.022;-1.178;2024-03-08T04:49:58;70;49;
57289;PMS5003;43523;53.022;-1.178;2024-03-08T04:51:00;66;52;
57289;PMS5003;43523;53.022;-1.178;2024-03-08T04:52:02;68;50;
57289;PMS5003;43523;53.022;-1.178;2024-03-08T04:53:05;58;49;
57289;PMS5003;43523;53.022;-1.178;2024-03-08T04:54:07;62;48;
57289;PMS5003;43523;53.022;-1.178;2024-03-08T04:55:09;62;52;
57289;PMS5003;43523;53.022;-1.178;2024-03-08T04:56:11;76;55;
57289;PMS5003;43523;53.022;-1.178;2024-03-08T04:57:14;57;45;
57289;PMS5003;43523;53.022;-1.178;2024-03-08T04:58:17;68;53;
57289;PMS5003;43523;53.022;-1.178;2024-03-08T04:59:21;70;50;
57289;PMS5003;43523;53.022;-1.178;2024-03-08T05:00:23;68;52;
57289;PMS5003;43523;53.022;-1.178;2024-03-08T05:01:25;79;58;
57289;PMS5003;43523;53.022;-1.178;2024-03-08T05:02:28;72;58;
57289;PMS5003;43523;53.022;-1.178;2024-03-08T05:03:30;67;57;
57289;PMS5003;43523;53.022;-1.178;2024-03-08T05:04:33;70;52;
57289;PMS5003;43523;53.022;-1.178;2024-03-08T05:05:35;64;52;
57289;PMS5003;43523;53.022;-1.178;2024-03-08T05:06:37;72;54;
57289;PMS5003;43523;53.022;-1.178;2024-03-08T05:07:40;63;54;
57289;PMS5003;43523;53.022;-1.178;2024-03-08T05:08:43;74;56;
57289;PMS5003;43523;53.022;-1.178;2024-03-08T05:09:46;57;45;
57289;PMS5003;43523;53.022;-1.178;2024-03-08T05:10:48;71;55;
57289;PMS5003;43523;53.022;-1.178;2024-03-08T05:11:51;72;52;
57289;PMS5003;43523;53.022;-1.178;2024-03-08T05:12:53;66;52;
57289;PMS5003;43523;53.022;-1.178;2024-03-08T05:13:55;70;55;
57289;PMS5003;43523;53.022;-1.178;2024-03-08T05:14:57;79;59;
57289;PMS5003;43523;53.022;-1.178;2024-03-08T05:16:00;67;54;
57289;PMS5003;43523;53.022;-1.178;2024-03-08T05:17:02;47;41;
57289;PMS5003;43523;53.022;-1.178;2024-03-08T05:18:05;75;57;
57289;PMS5003;43523;53.022;-1.178;2024-03-08T05:19:07;65;49;
57289;PMS5003;43523;53.022;-1.178;2024-03-08T05:20:10;71;52;
57289;PMS5003;43523;53.022;-1.178;2024-03-08T05:21:13;72;50;
57289;PMS5003;43523;53.022;-1.178;2024-03-08T05:22:15;63;54;
57289;PMS5003;43523;53.022;-1.178;2024-03-08T05:23:17;72;54;
57289;PMS5003;43523;53.022;-1.178;2024-03-08T05:24:20;70;56;
57289;PMS5003;43523;53.022;-1.178;2024-03-08T05:25:22;66;54;
57289;PMS5003;43523;53.022;-1.178;2024-03-08T05:26:24;71;54;
57289;PMS5003;43523;53.022;-1.178;2024-03-08T05:27:27;78;57;
57289;PMS5003;43523;53.022;-1.178;2024-03-08T05:28:30;69;52;
57289;PMS5003;43523;53.022;-1.178;2024-03-08T05:29:32;70;56;
57289;PMS5003;43523;53.022;-1.178;2024-03-08T05:30:35;71;57;
57289;PMS5003;43523;53.022;-1.178;2024-03-08T05:31:45;74;59;
57289;PMS5003;43523;53.022;-1.178;2024-03-08T05:32:49;73;59;
57289;PMS5003;43523;53.022;-1.178;2024-03-08T05:33:51;84;63;
57289;PMS5003;43523;53.022;-1.178;2024-03-08T05:34:53;79;63;
57289;PMS5003;43523;53.022;-1.178;2024-03-08T05:35:56;71;57;
57289;PMS5003;43523;53.022;-1.178;2024-03-08T05:36:58;66;55;
57289;PMS5003;43523;53.022;-1.178;2024-03-08T05:38:01;66;51;
57289;PMS5003;43523;53.022;-1.178;2024-03-08T05:39:03;72;64;
57289;PMS5003;43523;53.022;-1.178;2024-03-08T05:40:06;63;52;
57289;PMS5003;43523;53.022;-1.178;2024-03-08T05:41:09;81;62;
57289;PMS5003;43523;53.022;-1.178;2024-03-08T05:42:12;67;61;
57289;PMS5003;43523;53.022;-1.178;2024-03-08T05:43:15;66;55;
57289;PMS5003;43523;53.022;-1.178;2024-03-08T05:44:18;75;58;
57289;PMS5003;43523;53.022;-1.178;2024-03-08T05:45:21;76;61;
57289;PMS5003;43523;53.022;-1.178;2024-03-08T05:46:23;80;59;
57289;PMS5003;43523;53.022;-1.178;2024-03-08T05:47:25;66;50;
57289;PMS5003;43523;53.022;-1.178;2024-03-08T05:48:28;63;47;
57289;PMS5003;43523;53.022;-1.178;2024-03-08T05:49:30;63;52;
57289;PMS5003;43523;53.022;-1.178;2024-03-08T05:50:33;79;62;
57289;PMS5003;43523;53.022;-1.178;2024-03-08T05:51:36;75;60;
57289;PMS5003;43523;53.022;-1.178;2024-03-08T05:52:40;71;64;
57289;PMS5003;43523;53.022;-1.178;2024-03-08T05:53:43;66;52;
57289;PMS5003;43523;53.022;-1.178;2024-03-08T05:54:46;83;64;
57289;PMS5003;43523;53.022;-1.178;2024-03-08T05:55:48;70;51;
57289;PMS5003;43523;53.022;-1.178;2024-03-08T05:56:51;74;57;
57289;PMS5003;43523;53.022;-1.178;2024-03-08T05:57:53;70;59;
57289;PMS5003;43523;53.022;-1.178;2024-03-08T05:58:56;70;57;
57289;PMS5003;43523;53.022;-1.178;2024-03-08T05:59:58;85;64;
57289;PMS5003;43523;53.022;-1.178;2024-03-08T06:01:01;76;57;
57289;PMS5003;43523;53.022;-1.178;2024-03-08T06:02:03;62;56;
57289;PMS5003;43523;53.022;-1.178;2024-03-08T06:03:05;66;52;
57289;PMS5003;43523;53.022;-1.178;2024-03-08T06:04:07;76;56;
57289;PMS5003;43523;53.022;-1.178;2024-03-08T06:05:10;69;58;
57289;PMS5003;43523;53.022;-1.178;2024-03-08T06:06:13;73;58;
57289;PMS5003;43523;53.022;-1.178;2024-03-08T06:07:16;73;57;
57289;PMS5003;43523;53.022;-1.178;2024-03-08T06:08:19;80;64;
57289;PMS5003;43523;53.022;-1.178;2024-03-08T06:09:21;69;50;
57289;PMS5003;43523;53.022;-1.178;2024-03-08T06:10:24;75;61;
57289;PMS5003;43523;53.022;-1.178;2024-03-08T06:11:27;68;55;
57289;PMS5003;43523;53.022;-1.178;2024-03-08T06:12:29;76;65;
57289;PMS5003;43523;53.022;-1.178;2024-03-08T06:13:32;70;57;
57289;PMS5003;43523;53.022;-1.178;2024-03-08T06:14:34;85;62;
57289;PMS5003;43523;53.022;-1.178;2024-03-08T06:15:36;70;60;
57289;PMS5003;43523;53.022;-1.178;2024-03-08T06:16:38;68;57;
57289;PMS5003;43523;53.022;-1.178;2024-03-08T06:17:42;79;61;
57289;PMS5003;43523;53.022;-1.178;2024-03-08T06:18:45;67;61;
57289;PMS5003;43523;53.022;-1.178;2024-03-08T06:19:48;72;61;
57289;PMS5003;43523;53.022;-1.178;2024-03-08T06:20:50;78;61;
57289;PMS5003;43523;53.022;-1.178;2024-03-08T06:21:53;87;66;
57289;PMS5003;43523;53.022;-1.178;2024-03-08T06:22:56;72;60;
57289;PMS5003;43523;53.022;-1.178;2024-03-08T06:23:58;81;61;
57289;PMS5003;43523;53.022;-1.178;2024-03-08T06:25:01;82;56;
57289;PMS5003;43523;53.022;-1.178;2024-03-08T06:26:04;79;56;
57289;PMS5003;43523;53.022;-1.178;2024-03-08T06:27:07;70;61;
57289;PMS5003;43523;53.022;-1.178;2024-03-08T06:28:09;72;62;
57289;PMS5003;43523;53.022;-1.178;2024-03-08T06:29:12;70;55;
57289;PMS5003;43523;53.022;-1.178;2024-03-08T06:30:14;73;57;
57289;PMS5003;43523;53.022;-1.178;2024-03-08T06:31:17;91;64;
57289;PMS5003;43523;53.022;-1.178;2024-03-08T06:32:25;73;59;
57289;PMS5003;43523;53.022;-1.178;2024-03-08T06:33:28;81;62;
57289;PMS5003;43523;53.022;-1.178;2024-03-08T06:34:32;78;63;
57289;PMS5003;43523;53.022;-1.178;2024-03-08T06:35:35;70;59;
57289;PMS5003;43523;53.022;-1.178;2024-03-08T06:36:37;76;62;
57289;PMS5003;43523;53.022;-1.178;2024-03-08T06:37:40;77;64;
57289;PMS5003;43523;53.022;-1.178;2024-03-08T06:38:43;89;66;
57289;PMS5003;43523;53.022;-1.178;2024-03-08T06:39:45;76;61;
57289;PMS5003;43523;53.022;-1.178;2024-03-08T06:40:48;82;61;
57289;PMS5003;43523;53.022;-1.178;2024-03-08T06:41:50;75;65;
57289;PMS5003;43523;53.022;-1.178;2024-03-08T06:42:52;83;62;
57289;PMS5003;43523;53.022;-1.178;2024-03-08T06:43:55;81;60;
57289;PMS5003;43523;53.022;-1.178;2024-03-08T06:45:07;74;62;
57289;PMS5003;43523;53.022;-1.178;2024-03-08T06:46:09;73;64;
57289;PMS5003;43523;53.022;-1.178;2024-03-08T06:47:12;72;57;
57289;PMS5003;43523;53.022;-1.178;2024-03-08T06:48:15;77;60;
57289;PMS5003;43523;53.022;-1.178;2024-03-08T06:49:18;85;66;
57289;PMS5003;43523;53.022;-1.178;2024-03-08T06:50:20;64;55;